This is the latest recevied weather packets stored in our database for station/object KY0TEQ-13. If no packets are shown the sender has not sent any weather packets the latest 10 day(s).
| Time | Temp. | Humidity | Pressure | Rain* | Wind** | Luminosity | Snow |
|---|---|---|---|---|---|---|---|
| 1788502622 | 16.67° C | 44% | 1307.1 hPa | 0 mm | - | 0 W/m² | - |
| 1788502313 | 15.56° C | 49% | 1307.4 hPa | 0 mm | - | 0 W/m² | - |
| 1788502009 | 16.11° C | 50% | 1307.1 hPa | 0 mm | - | 0 W/m² | - |
| 1788501705 | 16.67° C | 46% | 1307.2 hPa | 0 mm | - | 0 W/m² | - |
| 1788501404 | 16.11° C | 48% | 1307.1 hPa | 0 mm | - | 0 W/m² | - |
| 1788501099 | 16.11° C | 47% | 1307.3 hPa | 0 mm | - | 0 W/m² | - |
| 1788500795 | 15.56° C | 49% | 1307.2 hPa | 0 mm | - | 0 W/m² | - |
| 1788500492 | 16.11° C | 48% | 1307.2 hPa | 0 mm | - | 0 W/m² | - |
| 1788500192 | 16.67° C | 47% | 1306.9 hPa | 0 mm | - | 0 W/m² | - |
| 1788499886 | 17.22° C | 44% | 1306.9 hPa | 0 mm | - | 0 W/m² | - |
| 1788499583 | 17.22° C | 43% | 1307.1 hPa | 0 mm | - | 0 W/m² | - |
| 1788499279 | 16.67° C | 45% | 1307.1 hPa | 0 mm | - | 0 W/m² | - |
| 1788498975 | 16.67° C | 46% | 1307.2 hPa | 0 mm | - | 0 W/m² | - |
| 1788498675 | 16.11° C | 48% | 1307.3 hPa | 0 mm | - | 0 W/m² | - |
| 1788498370 | 16.67° C | 47% | 1307.1 hPa | 0 mm | - | 0 W/m² | - |
| 1788498062 | 16.67° C | 45% | 1306.9 hPa | 0 mm | - | 0 W/m² | - |
| 1788497755 | 16.67° C | 45% | 1307.1 hPa | 0 mm | - | 0 W/m² | - |
| 1788497450 | 16.67° C | 47% | 1306.9 hPa | 0 mm | - | 0 W/m² | - |
| 1788497146 | 17.22° C | 45% | 1306.9 hPa | 0 mm | - | 0 W/m² | - |
| 1788496842 | 17.22° C | 43% | 1306.8 hPa | 0 mm | - | 0 W/m² | - |
| 1788496567 | 16.67° C | 44% | 1306.5 hPa | 0 mm | - | 0 W/m² | - |
| 1788496234 | 15.56° C | 47% | 1306.6 hPa | 0 mm | - | 0 W/m² | - |
| 1788495930 | 15.56° C | 47% | 1306.6 hPa | 0 mm | - | 0 W/m² | - |
| 1788495626 | 15.56° C | 47% | 1306.6 hPa | 0 mm | - | 0 W/m² | - |
| 1788495321 | 15° C | 48% | 1306.6 hPa | 0 mm | - | 0 W/m² | - |
* Rain latest hour (hover to see other rain measurements)
** Current wind speed in m/s (hover to see current wind gust speed)